createdAt,value
2022-11-05T00:02:45.332Z,22.30
2022-11-05T00:05:31.663Z,19.20
2022-11-05T00:08:20.645Z,20.98
2022-11-05T00:10:47.892Z,20.92
2022-11-05T00:13:34.281Z,23.73
2022-11-05T00:16:39.883Z,17.98
2022-11-05T00:19:07.329Z,18.55
2022-11-05T00:21:55.202Z,17.38
2022-11-05T00:24:41.712Z,17.25
2022-11-05T00:27:09.263Z,19.25
2022-11-05T00:29:36.606Z,19.35
2022-11-05T00:32:04.050Z,23.58
2022-11-05T00:34:31.841Z,19.40
2022-11-05T00:36:59.079Z,19.35
2022-11-05T00:39:26.279Z,16.45
2022-11-05T00:42:12.266Z,18.30
2022-11-05T00:44:58.294Z,19.00
2022-11-05T00:47:44.407Z,22.33
2022-11-05T00:50:11.806Z,16.67
2022-11-05T00:52:57.946Z,17.88
2022-11-05T00:55:43.095Z,18.05
2022-11-05T00:58:11.919Z,21.52
2022-11-05T01:00:41.177Z,20.55
2022-11-05T01:03:14.030Z,14.40
2022-11-05T01:05:50.369Z,18.50
2022-11-05T01:08:19.342Z,17.58
2022-11-05T01:10:49.850Z,20.42
2022-11-05T01:13:19.737Z,16.50
2022-11-05T01:18:14.471Z,21.20
2022-11-05T01:20:41.764Z,16.92
2022-11-05T01:23:13.448Z,21.63
2022-11-05T01:25:42.429Z,15.73
2022-11-05T01:28:10.261Z,19.77
2022-11-05T01:30:38.125Z,15.45
2022-11-05T01:33:05.767Z,19.13
2022-11-05T01:35:33.059Z,16.05
2022-11-05T01:38:00.394Z,21.58
2022-11-05T01:40:28.095Z,15.57
2022-11-05T01:42:55.369Z,15.13
2022-11-05T01:45:27.334Z,16.65
2022-11-05T01:48:16.334Z,16.92
2022-11-05T01:50:56.862Z,14.40
2022-11-05T01:53:30.980Z,18.27
2022-11-05T01:56:23.868Z,14.15
2022-11-05T01:58:53.924Z,12.90
2022-11-05T02:01:21.279Z,15.52
2022-11-05T02:03:51.075Z,20.05
2022-11-05T02:06:19.133Z,16.83
2022-11-05T02:09:03.652Z,12.30
2022-11-05T02:11:31.387Z,15.88
2022-11-05T02:13:58.892Z,17.65
2022-11-05T02:16:32.104Z,16.80
2022-11-05T02:19:13.007Z,14.73
2022-11-05T02:21:52.538Z,15.55
2022-11-05T02:24:41.542Z,15.30
2022-11-05T02:27:46.162Z,16.50
2022-11-05T02:30:34.822Z,14.20
2022-11-05T02:33:10.777Z,17.58
2022-11-05T02:35:47.158Z,15.93
2022-11-05T02:38:48.567Z,16.23
2022-11-05T02:41:25.693Z,14.50
2022-11-05T02:44:05.005Z,12.05
2022-11-05T02:46:54.148Z,14.25
2022-11-05T02:49:25.674Z,20.00
2022-11-05T02:51:58.258Z,11.50
2022-11-05T02:54:44.053Z,18.63
2022-11-05T02:57:11.286Z,14.35
2022-11-05T02:59:38.560Z,12.90
2022-11-05T03:02:06.115Z,15.45
2022-11-05T03:04:33.520Z,12.18
2022-11-05T03:07:19.042Z,14.85
2022-11-05T03:10:28.373Z,13.70
2022-11-05T03:13:04.821Z,16.38
2022-11-05T03:15:42.240Z,12.88
2022-11-05T03:18:18.625Z,15.45
2022-11-05T03:21:08.856Z,18.55
2022-11-05T03:26:20.656Z,15.02
2022-11-05T03:28:52.040Z,14.63
2022-11-05T03:31:20.425Z,16.77
2022-11-05T03:33:52.240Z,15.73
2022-11-05T03:36:32.315Z,14.40
2022-11-05T03:39:03.598Z,13.15
2022-11-05T03:41:33.202Z,12.00
2022-11-05T03:44:04.137Z,15.10
2022-11-05T03:46:38.746Z,12.70
2022-11-05T03:49:07.733Z,11.88
2022-11-05T03:51:41.913Z,14.20
2022-11-05T03:54:09.610Z,13.55
2022-11-05T03:56:45.276Z,16.88
2022-11-05T03:59:12.743Z,17.27
2022-11-05T04:01:41.838Z,11.48
2022-11-05T04:04:09.541Z,11.93
2022-11-05T04:06:55.931Z,14.05
2022-11-05T04:09:41.987Z,14.60
2022-11-05T04:12:31.156Z,12.02
2022-11-05T04:14:58.346Z,12.13
2022-11-05T04:17:25.556Z,13.77
2022-11-05T04:20:11.054Z,9.63
2022-11-05T04:22:56.943Z,13.00
2022-11-05T04:25:24.319Z,12.30
2022-11-05T04:27:51.935Z,9.10
2022-11-05T04:30:19.775Z,8.75
2022-11-05T04:33:15.461Z,16.42
2022-11-05T04:35:45.218Z,16.00
2022-11-05T04:38:15.192Z,15.30
2022-11-05T04:40:43.161Z,11.15
2022-11-05T04:43:15.168Z,11.30
2022-11-05T04:45:43.494Z,12.73
2022-11-05T04:48:11.148Z,12.00
2022-11-05T04:50:38.492Z,14.55
2022-11-05T04:53:05.712Z,12.88
2022-11-05T04:55:33.471Z,13.02
2022-11-05T04:58:00.720Z,11.20
2022-11-05T05:00:28.107Z,10.30
2022-11-05T05:02:55.362Z,16.55
2022-11-05T05:05:23.089Z,10.20
2022-11-05T05:07:50.337Z,10.75
2022-11-05T05:10:17.637Z,8.93
2022-11-05T05:12:44.885Z,12.50
2022-11-05T05:15:12.134Z,11.20
2022-11-05T05:17:39.373Z,13.75
2022-11-05T05:20:25.988Z,16.02
2022-11-05T05:22:56.392Z,13.02
2022-11-05T05:25:23.743Z,9.75
2022-11-05T05:27:51.092Z,12.90
2022-11-05T05:30:18.556Z,11.40
2022-11-05T05:32:45.732Z,10.60
2022-11-05T05:35:13.115Z,7.97
2022-11-05T05:37:40.375Z,13.35
2022-11-05T05:40:08.996Z,9.68
2022-11-05T05:42:41.802Z,15.48
2022-11-05T05:45:11.456Z,15.70
2022-11-05T05:47:38.765Z,13.65
2022-11-05T05:50:06.264Z,16.67
2022-11-05T05:52:33.550Z,8.65
2022-11-05T05:55:00.723Z,11.40
2022-11-05T05:57:28.464Z,15.13
2022-11-05T05:59:55.672Z,12.02
2022-11-05T06:02:23.178Z,12.38
2022-11-05T06:04:50.543Z,15.73
2022-11-05T06:07:17.726Z,15.90
2022-11-05T06:09:45.049Z,11.82
2022-11-05T06:12:12.491Z,12.65
2022-11-05T06:14:40.086Z,19.70
2022-11-05T06:17:07.668Z,22.00
2022-11-05T06:19:34.929Z,12.52
2022-11-05T06:22:02.137Z,8.95
2022-11-05T06:24:29.483Z,12.98
2022-11-05T06:26:56.748Z,13.07
2022-11-05T06:29:24.020Z,11.73
2022-11-05T06:31:51.254Z,10.73
2022-11-05T06:34:18.440Z,9.77
2022-11-05T06:36:45.666Z,14.27
2022-11-05T06:39:12.899Z,11.20
2022-11-05T06:42:03.958Z,14.85
2022-11-05T06:44:27.935Z,9.43
2022-11-05T06:46:55.247Z,12.20
2022-11-05T06:49:24.687Z,14.15
2022-11-05T06:51:52.531Z,8.75
2022-11-05T06:54:19.942Z,10.05
2022-11-05T06:56:47.321Z,14.32
2022-11-05T06:59:14.827Z,12.02
2022-11-05T07:01:42.169Z,11.27
2022-11-05T07:04:12.085Z,13.70
2022-11-05T07:06:39.437Z,10.00
2022-11-05T07:09:06.603Z,8.95
2022-11-05T07:11:34.124Z,9.38
2022-11-05T07:14:01.369Z,12.63
2022-11-05T07:16:28.705Z,12.90
2022-11-05T07:18:56.076Z,13.93
2022-11-05T07:21:23.345Z,11.23
2022-11-05T07:23:50.648Z,12.23
2022-11-05T07:26:17.814Z,10.10
2022-11-05T07:28:45.455Z,17.10
2022-11-05T07:31:14.151Z,10.65
2022-11-05T07:33:41.380Z,9.63
2022-11-05T07:36:08.975Z,7.03
2022-11-05T07:38:36.243Z,15.20
2022-11-05T07:41:03.822Z,15.85
2022-11-05T07:43:31.268Z,14.05
2022-11-05T07:45:58.527Z,11.75
2022-11-05T07:48:25.734Z,14.65
2022-11-05T07:50:55.882Z,14.93
2022-11-05T07:53:25.603Z,13.20
2022-11-05T07:55:52.948Z,11.20
2022-11-05T07:58:20.275Z,10.05
2022-11-05T08:00:47.893Z,9.85
2022-11-05T08:03:17.491Z,10.10
2022-11-05T08:05:47.121Z,12.10
2022-11-05T08:08:16.983Z,13.50
2022-11-05T08:10:44.729Z,9.55
2022-11-05T08:13:13.417Z,10.63
2022-11-05T08:15:42.656Z,10.20
2022-11-05T08:18:15.462Z,12.63
2022-11-05T08:20:44.100Z,10.45
2022-11-05T08:23:11.687Z,9.48
2022-11-05T08:25:39.892Z,14.65
2022-11-05T08:28:10.915Z,14.90
2022-11-05T08:30:38.535Z,12.13
2022-11-05T08:33:09.060Z,11.48
2022-11-05T08:35:37.425Z,8.13
2022-11-05T08:38:06.416Z,11.30
2022-11-05T08:40:35.220Z,8.90
2022-11-05T08:43:04.115Z,7.82
2022-11-05T08:45:31.756Z,11.63
2022-11-05T08:48:03.775Z,10.82
2022-11-05T08:50:31.880Z,13.27
2022-11-05T08:52:59.452Z,8.35
2022-11-05T08:55:27.252Z,12.18
2022-11-05T08:57:58.191Z,10.45
2022-11-05T09:00:26.896Z,9.95
2022-11-05T09:02:54.447Z,9.70
2022-11-05T09:05:21.648Z,12.48
2022-11-05T09:07:48.875Z,13.82
2022-11-05T09:10:16.154Z,10.75
2022-11-05T09:12:46.376Z,12.55
2022-11-05T09:15:13.832Z,9.05
2022-11-05T09:17:41.233Z,11.20
2022-11-05T09:20:10.328Z,10.70
2022-11-05T09:22:42.166Z,10.30
2022-11-05T09:25:10.828Z,9.68
2022-11-05T09:27:38.214Z,12.15
2022-11-05T09:30:05.877Z,12.90
2022-11-05T09:32:33.498Z,7.90
2022-11-05T09:35:01.272Z,10.82
2022-11-05T09:37:29.247Z,9.73
2022-11-05T09:39:56.492Z,9.10
2022-11-05T09:42:31.412Z,9.52
2022-11-05T09:45:04.544Z,7.85
2022-11-05T09:47:45.479Z,9.05
2022-11-05T09:50:16.048Z,8.15
2022-11-05T09:52:43.665Z,12.18
2022-11-05T09:55:36.061Z,9.80
2022-11-05T09:58:09.835Z,11.52
2022-11-05T10:00:37.072Z,11.00
2022-11-05T10:03:07.007Z,11.40
2022-11-05T10:05:35.075Z,9.20
2022-11-05T10:08:10.638Z,10.00
2022-11-05T10:10:54.333Z,14.05
2022-11-05T10:13:35.410Z,11.82
2022-11-05T10:16:07.532Z,9.32
2022-11-05T10:18:37.064Z,9.07
2022-11-05T10:21:04.614Z,7.45
2022-11-05T10:23:32.290Z,9.20
2022-11-05T10:26:04.056Z,6.40
2022-11-05T10:28:33.309Z,8.15
2022-11-05T10:31:04.500Z,8.65
2022-11-05T10:33:40.192Z,7.65
2022-11-05T10:36:11.837Z,9.52
2022-11-05T10:38:39.031Z,12.55
2022-11-05T10:41:15.453Z,10.15
2022-11-05T10:43:48.653Z,12.15
2022-11-05T10:46:30.182Z,7.43
2022-11-05T10:49:06.663Z,9.85
2022-11-05T10:51:34.116Z,11.48
2022-11-05T10:54:05.918Z,12.68
2022-11-05T10:56:36.866Z,11.02
2022-11-05T10:59:11.902Z,17.42
2022-11-05T11:01:39.543Z,15.02
2022-11-05T11:04:12.269Z,16.08
2022-11-05T11:06:44.822Z,11.13
2022-11-05T11:09:31.173Z,12.20
2022-11-05T11:12:14.932Z,7.15
2022-11-05T11:14:42.282Z,11.50
2022-11-05T11:17:27.730Z,11.13
2022-11-05T11:20:22.041Z,11.93
2022-11-05T11:22:59.595Z,10.50
2022-11-05T11:25:30.863Z,13.70
2022-11-05T11:28:03.196Z,12.95
2022-11-05T11:30:32.076Z,14.57
2022-11-05T11:33:06.930Z,12.98
2022-11-05T11:35:36.959Z,13.10
2022-11-05T11:38:05.195Z,11.52
2022-11-05T11:40:37.418Z,13.02
2022-11-05T11:43:14.436Z,13.07
2022-11-05T11:45:50.108Z,14.10
2022-11-05T11:48:20.068Z,13.80
2022-11-05T11:50:48.573Z,13.52
2022-11-05T11:53:20.036Z,7.03
2022-11-05T11:56:05.424Z,18.90
2022-11-05T11:58:40.593Z,10.77
2022-11-05T12:01:39.013Z,10.65
2022-11-05T12:04:20.460Z,9.90
2022-11-05T12:06:55.691Z,18.15
2022-11-05T12:09:47.908Z,25.85
2022-11-05T12:12:16.746Z,20.95
2022-11-05T12:14:55.386Z,17.35
2022-11-05T12:17:41.515Z,15.02
2022-11-05T12:20:20.625Z,11.45
2022-11-05T12:23:24.963Z,12.00
2022-11-05T12:26:16.689Z,8.68
2022-11-05T12:29:18.300Z,10.85
2022-11-05T12:32:08.262Z,12.23
2022-11-05T12:35:04.700Z,13.32
2022-11-05T12:38:13.629Z,8.90
2022-11-05T12:40:56.833Z,11.77
2022-11-05T12:44:00.839Z,11.50
2022-11-05T12:46:48.870Z,10.30
2022-11-05T12:49:37.912Z,9.05
2022-11-05T12:52:07.777Z,10.25
2022-11-05T12:55:03.113Z,13.00
2022-11-05T12:57:32.675Z,9.88
2022-11-05T13:00:22.193Z,11.68
2022-11-05T13:02:49.468Z,9.60
2022-11-05T13:05:45.302Z,12.70
2022-11-05T13:08:16.492Z,11.57
2022-11-05T13:13:21.164Z,14.05
2022-11-05T13:15:54.409Z,15.32
2022-11-05T13:18:27.395Z,11.88
2022-11-05T13:20:56.604Z,8.88
2022-11-05T13:23:37.993Z,18.02
2022-11-05T13:26:57.877Z,13.80
2022-11-05T13:29:46.921Z,15.60
2022-11-05T13:32:35.735Z,10.18
2022-11-05T13:35:05.587Z,10.40
2022-11-05T13:37:57.491Z,10.23
2022-11-05T13:40:44.527Z,9.60
2022-11-05T13:43:33.111Z,12.00
2022-11-05T13:46:06.409Z,10.00
2022-11-05T13:48:44.962Z,12.00
2022-11-05T13:51:37.656Z,11.30
2022-11-05T13:54:33.111Z,12.60
2022-11-05T13:57:09.605Z,10.32
2022-11-05T13:59:39.633Z,10.25
2022-11-05T14:02:39.204Z,11.40
2022-11-05T14:05:08.536Z,13.32
2022-11-05T14:07:38.549Z,13.50
2022-11-05T14:10:09.359Z,12.23
2022-11-05T14:12:39.052Z,12.57
2022-11-05T14:15:18.886Z,11.75
2022-11-05T14:17:58.442Z,8.35
2022-11-05T14:20:32.016Z,16.73
2022-11-05T14:23:25.956Z,12.40
2022-11-05T14:25:55.788Z,11.38
2022-11-05T14:28:35.052Z,20.98
2022-11-05T14:31:03.699Z,14.63
2022-11-05T14:33:35.097Z,18.67
2022-11-05T14:36:20.744Z,11.77
2022-11-05T14:38:52.988Z,13.65
2022-11-05T14:41:21.178Z,11.02
2022-11-05T14:43:57.332Z,13.25
2022-11-05T14:46:24.744Z,9.63
2022-11-05T14:48:55.205Z,14.20
2022-11-05T14:51:26.111Z,13.90
2022-11-05T14:54:05.560Z,7.90
2022-11-05T14:57:02.602Z,12.90
2022-11-05T14:59:31.869Z,8.43
2022-11-05T15:02:09.899Z,11.73
2022-11-05T15:04:42.730Z,10.18
2022-11-05T15:07:09.925Z,11.63
2022-11-05T15:10:10.621Z,12.90
2022-11-05T15:12:51.587Z,9.77
2022-11-05T15:15:24.762Z,14.32
2022-11-05T15:17:58.370Z,15.15
2022-11-05T15:20:37.287Z,14.57
2022-11-05T15:23:11.247Z,13.65
2022-11-05T15:26:16.440Z,13.07
2022-11-05T15:28:46.845Z,8.93
2022-11-05T15:31:14.070Z,13.32
2022-11-05T15:33:42.789Z,11.77
2022-11-05T15:36:26.419Z,9.57
2022-11-05T15:39:22.858Z,14.98
2022-11-05T15:41:41.667Z,14.30
2022-11-05T15:44:24.236Z,11.05
2022-11-05T15:47:25.396Z,11.82
2022-11-05T15:50:01.965Z,15.75
2022-11-05T15:52:36.454Z,11.40
2022-11-05T15:55:13.029Z,13.48
2022-11-05T15:57:58.200Z,13.85
2022-11-05T16:00:29.669Z,14.15
2022-11-05T16:03:45.070Z,16.75
2022-11-05T16:06:52.164Z,9.18
2022-11-05T16:09:22.182Z,9.52
2022-11-05T16:11:54.341Z,17.52
2022-11-05T16:14:22.139Z,13.07
2022-11-05T16:16:53.233Z,12.30
2022-11-05T16:19:40.571Z,16.13
2022-11-05T16:22:15.788Z,13.98
2022-11-05T16:24:43.772Z,15.35
2022-11-05T16:27:19.877Z,13.77
2022-11-05T16:29:53.086Z,12.23
2022-11-05T16:32:31.080Z,13.20
2022-11-05T16:35:00.830Z,13.65
2022-11-05T16:37:38.131Z,17.55
2022-11-05T16:40:25.589Z,15.18
2022-11-05T16:42:53.959Z,19.15
2022-11-05T16:45:25.445Z,20.25
2022-11-05T16:47:52.777Z,16.17
2022-11-05T16:50:30.451Z,13.52
2022-11-05T16:52:58.383Z,15.15
2022-11-05T16:55:25.781Z,14.18
2022-11-05T16:57:54.339Z,13.43
2022-11-05T17:00:22.537Z,15.38
2022-11-05T17:02:50.408Z,13.40
2022-11-05T17:05:24.245Z,13.57
2022-11-05T17:07:52.134Z,17.10
2022-11-05T17:10:20.696Z,18.00
2022-11-05T17:12:48.426Z,14.80
2022-11-05T17:15:24.154Z,17.58
2022-11-05T17:17:52.868Z,18.77
2022-11-05T17:20:49.996Z,14.05
2022-11-05T17:23:22.633Z,17.10
2022-11-05T17:25:52.336Z,13.23
2022-11-05T17:28:20.276Z,18.60
2022-11-05T17:30:52.876Z,14.43
2022-11-05T17:33:22.749Z,17.20
2022-11-05T17:35:50.631Z,11.45
2022-11-05T17:38:18.225Z,21.00
2022-11-05T17:40:45.614Z,17.23
2022-11-05T17:43:13.520Z,18.98
2022-11-05T17:45:42.801Z,13.38
2022-11-05T17:48:10.561Z,16.83
2022-11-05T17:50:45.811Z,17.88
2022-11-05T17:53:14.144Z,17.15
2022-11-05T17:55:42.710Z,17.40
2022-11-05T17:58:10.632Z,22.92
2022-11-05T18:00:38.828Z,16.23
2022-11-05T18:03:06.095Z,17.48
2022-11-05T18:05:34.342Z,16.92
2022-11-05T18:08:01.842Z,20.50
2022-11-05T18:10:29.230Z,19.73
2022-11-05T18:12:56.608Z,16.75
2022-11-05T18:15:23.891Z,15.30
2022-11-05T18:17:51.275Z,18.48
2022-11-05T18:20:19.718Z,18.55
2022-11-05T18:22:50.001Z,17.13
2022-11-05T18:27:45.104Z,19.58
2022-11-05T18:30:15.522Z,24.83
2022-11-05T18:32:44.238Z,19.55
2022-11-05T18:35:13.405Z,16.70
2022-11-05T18:37:50.428Z,18.15
2022-11-05T18:40:17.722Z,20.75
2022-11-05T18:42:45.035Z,15.00
2022-11-05T18:45:12.379Z,18.27
2022-11-05T18:47:39.863Z,20.83
2022-11-05T18:50:09.389Z,18.40
2022-11-05T18:52:39.475Z,20.02
2022-11-05T18:55:07.556Z,16.60
2022-11-05T18:57:35.397Z,23.63
2022-11-05T19:00:05.090Z,16.27
2022-11-05T19:02:32.518Z,16.77
2022-11-05T19:05:27.465Z,17.75
2022-11-05T19:07:47.360Z,16.60
2022-11-05T19:10:15.047Z,18.77
2022-11-05T19:12:42.405Z,14.45
2022-11-05T19:15:10.268Z,20.90
2022-11-05T19:17:37.607Z,22.48
2022-11-05T19:20:05.658Z,36.78
2022-11-05T19:22:33.321Z,31.23
2022-11-05T19:25:00.608Z,29.80
2022-11-05T19:27:27.875Z,21.85
2022-11-05T19:29:55.136Z,20.65
2022-11-05T19:32:22.334Z,28.10
2022-11-05T19:34:49.846Z,23.60
2022-11-05T19:37:17.707Z,19.92
2022-11-05T19:39:45.316Z,15.50
2022-11-05T19:42:12.967Z,16.33
2022-11-05T19:44:40.866Z,20.50
2022-11-05T19:47:08.132Z,20.90
2022-11-05T19:49:35.360Z,17.20
2022-11-05T19:52:02.681Z,23.10
2022-11-05T19:54:30.120Z,24.45
2022-11-05T19:56:57.535Z,31.33
2022-11-05T19:59:24.901Z,19.98
2022-11-05T20:01:52.359Z,22.02
2022-11-05T20:04:20.167Z,17.45
2022-11-05T20:06:47.367Z,16.30
2022-11-05T20:09:23.279Z,19.38
2022-11-05T20:11:53.807Z,16.70
2022-11-05T20:14:21.510Z,14.95
2022-11-05T20:16:49.384Z,19.50
2022-11-05T20:19:19.240Z,21.80
2022-11-05T20:21:46.727Z,13.05
2022-11-05T20:24:22.288Z,19.45
2022-11-05T20:26:53.651Z,18.38
2022-11-05T20:29:21.431Z,16.50
2022-11-05T20:31:49.262Z,17.00
2022-11-05T20:34:16.551Z,26.27
2022-11-05T20:36:43.808Z,15.13
2022-11-05T20:39:11.982Z,18.02
2022-11-05T20:41:39.456Z,17.35
2022-11-05T20:44:06.871Z,13.00
2022-11-05T20:46:34.183Z,13.43
2022-11-05T20:49:01.403Z,14.80
2022-11-05T20:51:29.052Z,18.98
2022-11-05T20:53:58.532Z,18.98
2022-11-05T20:56:29.422Z,25.13
2022-11-05T20:58:58.486Z,19.63
2022-11-05T21:01:29.756Z,18.33
2022-11-05T21:03:57.222Z,18.05
2022-11-05T21:06:24.528Z,15.52
2022-11-05T21:08:52.334Z,26.00
2022-11-05T21:11:20.614Z,28.08
2022-11-05T21:13:48.516Z,48.25
2022-11-05T21:16:18.692Z,39.20
2022-11-05T21:18:46.912Z,26.75
2022-11-05T21:21:19.729Z,24.70
2022-11-05T21:23:47.659Z,22.60
2022-11-05T21:26:16.803Z,19.55
2022-11-05T21:28:44.149Z,21.70
2022-11-05T21:31:11.703Z,37.67
2022-11-05T21:33:39.317Z,24.05
2022-11-05T21:36:08.874Z,16.80
2022-11-05T21:38:37.793Z,16.15
2022-11-05T21:41:05.465Z,14.00
2022-11-05T21:43:33.086Z,16.25
2022-11-05T21:46:02.030Z,16.98
2022-11-05T21:48:30.318Z,18.40
2022-11-05T21:51:16.761Z,14.25
2022-11-05T21:54:02.629Z,12.05
2022-11-05T21:56:48.502Z,15.05
2022-11-05T21:59:36.633Z,17.05
2022-11-05T22:02:04.934Z,19.30
2022-11-05T22:04:34.542Z,16.58
2022-11-05T22:07:02.402Z,21.15
2022-11-05T22:09:30.058Z,23.77
2022-11-05T22:11:58.303Z,13.75
2022-11-05T22:14:26.374Z,14.13
2022-11-05T22:16:54.044Z,14.13
2022-11-05T22:19:22.836Z,15.60
2022-11-05T22:21:50.332Z,15.05
2022-11-05T22:24:25.764Z,15.63
2022-11-05T22:26:53.481Z,21.52
2022-11-05T22:29:20.752Z,12.55
2022-11-05T22:31:48.053Z,15.35
2022-11-05T22:34:15.549Z,12.02
2022-11-05T22:36:42.845Z,27.60
2022-11-05T22:39:11.398Z,21.13
2022-11-05T22:41:38.894Z,18.48
2022-11-05T22:44:06.309Z,16.70
2022-11-05T22:46:33.786Z,17.75
2022-11-05T22:49:01.175Z,16.30
2022-11-05T22:51:30.816Z,35.65
2022-11-05T22:53:59.017Z,20.98
2022-11-05T22:56:29.318Z,12.95
2022-11-05T22:58:57.121Z,15.18
2022-11-05T23:01:25.275Z,20.40
2022-11-05T23:03:54.013Z,20.60
2022-11-05T23:06:42.344Z,15.23
2022-11-05T23:09:43.764Z,13.40
2022-11-05T23:12:25.061Z,12.25
2022-11-05T23:14:53.467Z,17.45
2022-11-05T23:17:39.366Z,16.98
2022-11-05T23:20:28.838Z,13.20
2022-11-05T23:23:15.984Z,14.20
2022-11-05T23:25:43.544Z,12.90
2022-11-05T23:28:11.964Z,17.20
2022-11-05T23:31:02.302Z,11.43
2022-11-05T23:33:33.882Z,10.73
2022-11-05T23:36:20.121Z,15.85
2022-11-05T23:38:47.491Z,22.02
2022-11-05T23:41:33.357Z,15.50
2022-11-05T23:44:19.253Z,19.75
2022-11-05T23:47:22.020Z,17.98
2022-11-05T23:49:50.417Z,19.90
2022-11-05T23:52:17.758Z,13.95
2022-11-05T23:54:44.981Z,17.92
2022-11-05T23:57:12.260Z,17.02
2022-11-05T23:59:39.489Z,16.85
